sensor_id;sensor_type;location;lat;lon;timestamp;P1;durP1;ratioP1;P2;durP2;ratioP2
9675;SDS011;4876;42.656;23.292;2024-01-30T00:01:15;5.20;;;2.10;;
9675;SDS011;4876;42.656;23.292;2024-01-30T00:03:40;6.25;;;2.70;;
9675;SDS011;4876;42.656;23.292;2024-01-30T00:06:06;7.05;;;2.55;;
9675;SDS011;4876;42.656;23.292;2024-01-30T00:08:33;6.10;;;2.33;;
9675;SDS011;4876;42.656;23.292;2024-01-30T00:10:58;5.40;;;2.28;;
9675;SDS011;4876;42.656;23.292;2024-01-30T00:13:24;6.63;;;2.20;;
9675;SDS011;4876;42.656;23.292;2024-01-30T00:15:49;4.30;;;2.17;;
9675;SDS011;4876;42.656;23.292;2024-01-30T00:18:15;4.07;;;2.22;;
9675;SDS011;4876;42.656;23.292;2024-01-30T00:20:41;6.32;;;2.72;;
9675;SDS011;4876;42.656;23.292;2024-01-30T00:23:07;7.53;;;2.75;;
9675;SDS011;4876;42.656;23.292;2024-01-30T00:25:33;7.82;;;2.58;;
9675;SDS011;4876;42.656;23.292;2024-01-30T00:27:59;7.57;;;3.00;;
9675;SDS011;4876;42.656;23.292;2024-01-30T00:30:24;5.82;;;2.42;;
9675;SDS011;4876;42.656;23.292;2024-01-30T00:32:50;7.25;;;2.40;;
9675;SDS011;4876;42.656;23.292;2024-01-30T00:35:15;4.35;;;2.10;;
9675;SDS011;4876;42.656;23.292;2024-01-30T00:37:41;7.20;;;3.00;;
9675;SDS011;4876;42.656;23.292;2024-01-30T00:40:07;8.93;;;2.72;;
9675;SDS011;4876;42.656;23.292;2024-01-30T00:42:33;4.82;;;2.65;;
9675;SDS011;4876;42.656;23.292;2024-01-30T00:44:58;6.00;;;2.38;;
9675;SDS011;4876;42.656;23.292;2024-01-30T00:47:24;5.43;;;2.40;;
9675;SDS011;4876;42.656;23.292;2024-01-30T00:49:49;6.55;;;2.53;;
9675;SDS011;4876;42.656;23.292;2024-01-30T00:52:15;6.70;;;2.80;;
9675;SDS011;4876;42.656;23.292;2024-01-30T00:54:42;6.90;;;2.25;;
9675;SDS011;4876;42.656;23.292;2024-01-30T00:57:08;7.20;;;2.83;;
9675;SDS011;4876;42.656;23.292;2024-01-30T00:59:33;8.23;;;2.70;;
9675;SDS011;4876;42.656;23.292;2024-01-30T01:01:59;6.13;;;2.20;;
9675;SDS011;4876;42.656;23.292;2024-01-30T01:04:25;4.80;;;2.58;;
9675;SDS011;4876;42.656;23.292;2024-01-30T01:06:51;5.70;;;2.78;;
9675;SDS011;4876;42.656;23.292;2024-01-30T01:09:17;7.78;;;2.25;;
9675;SDS011;4876;42.656;23.292;2024-01-30T01:11:43;6.53;;;2.58;;
9675;SDS011;4876;42.656;23.292;2024-01-30T01:14:08;6.28;;;2.53;;
9675;SDS011;4876;42.656;23.292;2024-01-30T01:16:34;7.10;;;2.30;;
9675;SDS011;4876;42.656;23.292;2024-01-30T01:18:59;5.70;;;2.22;;
9675;SDS011;4876;42.656;23.292;2024-01-30T01:21:25;7.95;;;2.90;;
9675;SDS011;4876;42.656;23.292;2024-01-30T01:23:51;7.07;;;2.95;;
9675;SDS011;4876;42.656;23.292;2024-01-30T01:26:17;6.15;;;3.03;;
9675;SDS011;4876;42.656;23.292;2024-01-30T01:28:42;5.57;;;2.58;;
9675;SDS011;4876;42.656;23.292;2024-01-30T01:31:08;6.03;;;3.03;;
9675;SDS011;4876;42.656;23.292;2024-01-30T01:33:34;12.57;;;2.97;;
9675;SDS011;4876;42.656;23.292;2024-01-30T01:36:02;7.07;;;3.55;;
9675;SDS011;4876;42.656;23.292;2024-01-30T01:38:28;5.97;;;3.33;;
9675;SDS011;4876;42.656;23.292;2024-01-30T01:40:54;5.80;;;2.53;;
9675;SDS011;4876;42.656;23.292;2024-01-30T01:43:19;6.13;;;2.97;;
9675;SDS011;4876;42.656;23.292;2024-01-30T01:45:45;4.57;;;2.30;;
9675;SDS011;4876;42.656;23.292;2024-01-30T01:48:11;4.85;;;2.47;;
9675;SDS011;4876;42.656;23.292;2024-01-30T01:50:37;6.53;;;3.20;;
9675;SDS011;4876;42.656;23.292;2024-01-30T01:53:03;6.15;;;2.78;;
9675;SDS011;4876;42.656;23.292;2024-01-30T01:55:32;7.15;;;2.38;;
9675;SDS011;4876;42.656;23.292;2024-01-30T01:57:59;7.22;;;2.38;;
9675;SDS011;4876;42.656;23.292;2024-01-30T02:00:25;6.97;;;2.58;;
9675;SDS011;4876;42.656;23.292;2024-01-30T02:02:51;5.22;;;1.95;;
9675;SDS011;4876;42.656;23.292;2024-01-30T02:05:19;6.68;;;2.40;;
9675;SDS011;4876;42.656;23.292;2024-01-30T02:07:46;5.03;;;2.55;;
9675;SDS011;4876;42.656;23.292;2024-01-30T02:10:12;5.35;;;3.08;;
9675;SDS011;4876;42.656;23.292;2024-01-30T02:12:38;6.78;;;2.70;;
9675;SDS011;4876;42.656;23.292;2024-01-30T02:15:03;7.05;;;2.65;;
9675;SDS011;4876;42.656;23.292;2024-01-30T02:17:30;4.70;;;2.20;;
9675;SDS011;4876;42.656;23.292;2024-01-30T02:19:56;4.45;;;2.25;;
9675;SDS011;4876;42.656;23.292;2024-01-30T02:22:21;8.50;;;2.83;;
9675;SDS011;4876;42.656;23.292;2024-01-30T02:24:47;5.18;;;2.00;;
9675;SDS011;4876;42.656;23.292;2024-01-30T02:27:13;6.72;;;3.25;;
9675;SDS011;4876;42.656;23.292;2024-01-30T02:29:38;7.03;;;2.90;;
9675;SDS011;4876;42.656;23.292;2024-01-30T02:32:04;8.80;;;3.63;;
9675;SDS011;4876;42.656;23.292;2024-01-30T02:34:30;8.57;;;3.25;;
9675;SDS011;4876;42.656;23.292;2024-01-30T02:36:56;5.70;;;2.35;;
9675;SDS011;4876;42.656;23.292;2024-01-30T02:39:21;5.03;;;2.17;;
9675;SDS011;4876;42.656;23.292;2024-01-30T02:41:47;6.70;;;2.92;;
9675;SDS011;4876;42.656;23.292;2024-01-30T02:44:12;4.35;;;2.00;;
9675;SDS011;4876;42.656;23.292;2024-01-30T02:46:38;4.80;;;1.90;;
9675;SDS011;4876;42.656;23.292;2024-01-30T02:49:03;6.22;;;1.88;;
9675;SDS011;4876;42.656;23.292;2024-01-30T02:51:29;7.00;;;2.50;;
9675;SDS011;4876;42.656;23.292;2024-01-30T02:53:54;6.38;;;2.45;;
9675;SDS011;4876;42.656;23.292;2024-01-30T02:56:20;2.83;;;1.60;;
9675;SDS011;4876;42.656;23.292;2024-01-30T02:58:46;3.97;;;2.00;;
9675;SDS011;4876;42.656;23.292;2024-01-30T03:01:11;5.60;;;2.13;;
9675;SDS011;4876;42.656;23.292;2024-01-30T03:03:37;3.15;;;1.30;;
9675;SDS011;4876;42.656;23.292;2024-01-30T03:06:02;3.83;;;2.08;;
9675;SDS011;4876;42.656;23.292;2024-01-30T03:08:28;4.93;;;2.05;;
9675;SDS011;4876;42.656;23.292;2024-01-30T03:10:53;4.53;;;1.80;;
9675;SDS011;4876;42.656;23.292;2024-01-30T03:13:19;3.22;;;1.90;;
9675;SDS011;4876;42.656;23.292;2024-01-30T03:15:45;4.30;;;1.70;;
9675;SDS011;4876;42.656;23.292;2024-01-30T03:18:10;5.15;;;2.30;;
9675;SDS011;4876;42.656;23.292;2024-01-30T03:20:36;3.58;;;1.70;;
9675;SDS011;4876;42.656;23.292;2024-01-30T03:23:01;5.20;;;2.00;;
9675;SDS011;4876;42.656;23.292;2024-01-30T03:25:27;6.75;;;2.45;;
9675;SDS011;4876;42.656;23.292;2024-01-30T03:27:53;5.68;;;2.72;;
9675;SDS011;4876;42.656;23.292;2024-01-30T03:30:18;8.23;;;3.00;;
9675;SDS011;4876;42.656;23.292;2024-01-30T03:32:44;3.88;;;2.00;;
9675;SDS011;4876;42.656;23.292;2024-01-30T03:35:09;3.90;;;2.00;;
9675;SDS011;4876;42.656;23.292;2024-01-30T03:37:35;3.17;;;1.67;;
9675;SDS011;4876;42.656;23.292;2024-01-30T03:40:01;5.30;;;1.90;;
9675;SDS011;4876;42.656;23.292;2024-01-30T03:42:27;3.85;;;1.58;;
9675;SDS011;4876;42.656;23.292;2024-01-30T03:44:53;3.35;;;1.55;;
9675;SDS011;4876;42.656;23.292;2024-01-30T03:47:20;2.50;;;1.63;;
9675;SDS011;4876;42.656;23.292;2024-01-30T03:49:45;4.85;;;1.73;;
9675;SDS011;4876;42.656;23.292;2024-01-30T03:52:11;5.25;;;1.60;;
9675;SDS011;4876;42.656;23.292;2024-01-30T03:54:37;5.60;;;1.75;;
9675;SDS011;4876;42.656;23.292;2024-01-30T03:57:02;4.78;;;2.20;;
9675;SDS011;4876;42.656;23.292;2024-01-30T03:59:28;5.70;;;1.88;;
9675;SDS011;4876;42.656;23.292;2024-01-30T04:01:54;3.10;;;1.42;;
9675;SDS011;4876;42.656;23.292;2024-01-30T04:04:19;3.33;;;1.63;;
9675;SDS011;4876;42.656;23.292;2024-01-30T04:06:45;3.47;;;1.88;;
9675;SDS011;4876;42.656;23.292;2024-01-30T04:09:12;3.72;;;1.80;;
9675;SDS011;4876;42.656;23.292;2024-01-30T04:11:38;2.88;;;1.13;;
9675;SDS011;4876;42.656;23.292;2024-01-30T04:14:04;3.28;;;1.42;;
9675;SDS011;4876;42.656;23.292;2024-01-30T04:16:30;3.88;;;1.08;;
9675;SDS011;4876;42.656;23.292;2024-01-30T04:18:55;2.67;;;1.40;;
9675;SDS011;4876;42.656;23.292;2024-01-30T04:21:21;3.45;;;1.27;;
9675;SDS011;4876;42.656;23.292;2024-01-30T04:23:47;3.70;;;1.38;;
9675;SDS011;4876;42.656;23.292;2024-01-30T04:26:13;2.92;;;1.35;;
9675;SDS011;4876;42.656;23.292;2024-01-30T04:28:41;3.20;;;1.38;;
9675;SDS011;4876;42.656;23.292;2024-01-30T04:31:06;5.28;;;2.13;;
9675;SDS011;4876;42.656;23.292;2024-01-30T04:33:32;5.00;;;2.13;;
9675;SDS011;4876;42.656;23.292;2024-01-30T04:35:57;4.28;;;1.88;;
9675;SDS011;4876;42.656;23.292;2024-01-30T04:38:23;2.95;;;1.50;;
9675;SDS011;4876;42.656;23.292;2024-01-30T04:40:49;3.85;;;1.73;;
9675;SDS011;4876;42.656;23.292;2024-01-30T04:43:14;2.97;;;1.23;;
9675;SDS011;4876;42.656;23.292;2024-01-30T04:45:41;3.00;;;1.33;;
9675;SDS011;4876;42.656;23.292;2024-01-30T04:48:06;3.95;;;1.80;;
9675;SDS011;4876;42.656;23.292;2024-01-30T04:50:32;6.28;;;2.05;;
9675;SDS011;4876;42.656;23.292;2024-01-30T04:52:58;5.40;;;1.48;;
9675;SDS011;4876;42.656;23.292;2024-01-30T04:55:24;3.15;;;1.40;;
9675;SDS011;4876;42.656;23.292;2024-01-30T04:57:49;3.53;;;1.60;;
9675;SDS011;4876;42.656;23.292;2024-01-30T05:00:15;4.70;;;1.52;;
9675;SDS011;4876;42.656;23.292;2024-01-30T05:02:41;3.08;;;1.73;;
9675;SDS011;4876;42.656;23.292;2024-01-30T05:05:06;4.32;;;1.40;;
9675;SDS011;4876;42.656;23.292;2024-01-30T05:07:33;4.53;;;1.70;;
9675;SDS011;4876;42.656;23.292;2024-01-30T05:09:59;3.38;;;1.42;;
9675;SDS011;4876;42.656;23.292;2024-01-30T05:12:27;3.25;;;1.38;;
9675;SDS011;4876;42.656;23.292;2024-01-30T05:14:53;5.13;;;2.10;;
9675;SDS011;4876;42.656;23.292;2024-01-30T05:17:18;3.50;;;1.70;;
9675;SDS011;4876;42.656;23.292;2024-01-30T05:19:44;2.85;;;1.20;;
9675;SDS011;4876;42.656;23.292;2024-01-30T05:22:10;3.50;;;1.70;;
9675;SDS011;4876;42.656;23.292;2024-01-30T05:24:36;4.00;;;1.15;;
9675;SDS011;4876;42.656;23.292;2024-01-30T05:27:02;3.03;;;1.80;;
9675;SDS011;4876;42.656;23.292;2024-01-30T05:29:27;4.00;;;1.90;;
9675;SDS011;4876;42.656;23.292;2024-01-30T05:31:53;5.78;;;1.98;;
9675;SDS011;4876;42.656;23.292;2024-01-30T05:34:18;3.58;;;1.45;;
9675;SDS011;4876;42.656;23.292;2024-01-30T05:36:44;4.22;;;1.63;;
9675;SDS011;4876;42.656;23.292;2024-01-30T05:39:09;4.35;;;1.60;;
9675;SDS011;4876;42.656;23.292;2024-01-30T05:41:35;3.92;;;1.65;;
9675;SDS011;4876;42.656;23.292;2024-01-30T05:44:01;6.22;;;1.73;;
9675;SDS011;4876;42.656;23.292;2024-01-30T05:46:27;5.57;;;1.80;;
9675;SDS011;4876;42.656;23.292;2024-01-30T05:48:52;5.47;;;2.33;;
9675;SDS011;4876;42.656;23.292;2024-01-30T05:51:18;3.10;;;1.52;;
9675;SDS011;4876;42.656;23.292;2024-01-30T05:53:43;5.88;;;1.95;;
9675;SDS011;4876;42.656;23.292;2024-01-30T05:56:09;5.90;;;2.35;;
9675;SDS011;4876;42.656;23.292;2024-01-30T05:58:34;4.57;;;1.40;;
9675;SDS011;4876;42.656;23.292;2024-01-30T06:01:00;3.90;;;2.00;;
9675;SDS011;4876;42.656;23.292;2024-01-30T06:03:25;3.95;;;1.90;;
9675;SDS011;4876;42.656;23.292;2024-01-30T06:05:51;6.32;;;2.28;;
9675;SDS011;4876;42.656;23.292;2024-01-30T06:08:17;4.82;;;2.05;;
9675;SDS011;4876;42.656;23.292;2024-01-30T06:10:43;6.50;;;2.20;;
9675;SDS011;4876;42.656;23.292;2024-01-30T06:13:08;5.78;;;2.25;;
9675;SDS011;4876;42.656;23.292;2024-01-30T06:15:34;6.35;;;2.63;;
9675;SDS011;4876;42.656;23.292;2024-01-30T06:17:59;5.90;;;2.45;;
9675;SDS011;4876;42.656;23.292;2024-01-30T06:20:25;6.65;;;2.33;;
9675;SDS011;4876;42.656;23.292;2024-01-30T06:22:50;5.32;;;2.80;;
9675;SDS011;4876;42.656;23.292;2024-01-30T06:25:16;8.88;;;3.10;;
9675;SDS011;4876;42.656;23.292;2024-01-30T06:27:42;6.53;;;3.05;;
9675;SDS011;4876;42.656;23.292;2024-01-30T06:32:36;5.32;;;2.28;;
9675;SDS011;4876;42.656;23.292;2024-01-30T06:35:02;10.77;;;2.75;;
9675;SDS011;4876;42.656;23.292;2024-01-30T06:37:28;8.82;;;3.15;;
9675;SDS011;4876;42.656;23.292;2024-01-30T06:39:54;8.88;;;2.47;;
9675;SDS011;4876;42.656;23.292;2024-01-30T06:42:20;8.30;;;2.65;;
9675;SDS011;4876;42.656;23.292;2024-01-30T06:44:46;7.25;;;2.92;;
9675;SDS011;4876;42.656;23.292;2024-01-30T06:47:13;6.85;;;3.40;;
9675;SDS011;4876;42.656;23.292;2024-01-30T06:49:42;7.85;;;2.85;;
9675;SDS011;4876;42.656;23.292;2024-01-30T06:52:09;10.65;;;2.50;;
9675;SDS011;4876;42.656;23.292;2024-01-30T06:54:34;4.40;;;2.33;;
9675;SDS011;4876;42.656;23.292;2024-01-30T06:57:00;4.38;;;2.17;;
9675;SDS011;4876;42.656;23.292;2024-01-30T06:59:26;3.67;;;1.88;;
9675;SDS011;4876;42.656;23.292;2024-01-30T07:01:51;4.28;;;2.33;;
9675;SDS011;4876;42.656;23.292;2024-01-30T07:04:17;4.85;;;1.95;;
9675;SDS011;4876;42.656;23.292;2024-01-30T07:06:43;5.10;;;2.33;;
9675;SDS011;4876;42.656;23.292;2024-01-30T07:09:09;13.60;;;4.18;;
9675;SDS011;4876;42.656;23.292;2024-01-30T07:11:35;8.15;;;3.22;;
9675;SDS011;4876;42.656;23.292;2024-01-30T07:14:00;3.58;;;1.77;;
9675;SDS011;4876;42.656;23.292;2024-01-30T07:16:28;5.38;;;2.42;;
9675;SDS011;4876;42.656;23.292;2024-01-30T07:18:54;7.57;;;2.50;;
9675;SDS011;4876;42.656;23.292;2024-01-30T07:21:21;5.22;;;2.13;;
9675;SDS011;4876;42.656;23.292;2024-01-30T07:23:50;4.75;;;1.73;;
9675;SDS011;4876;42.656;23.292;2024-01-30T07:26:22;2.50;;;1.45;;
9675;SDS011;4876;42.656;23.292;2024-01-30T07:28:47;3.65;;;1.52;;
9675;SDS011;4876;42.656;23.292;2024-01-30T07:31:13;3.97;;;1.38;;
9675;SDS011;4876;42.656;23.292;2024-01-30T07:33:39;7.38;;;1.02;;
9675;SDS011;4876;42.656;23.292;2024-01-30T07:36:04;2.67;;;0.93;;
9675;SDS011;4876;42.656;23.292;2024-01-30T07:38:33;7.63;;;2.40;;
9675;SDS011;4876;42.656;23.292;2024-01-30T07:40:59;3.67;;;1.63;;
9675;SDS011;4876;42.656;23.292;2024-01-30T07:43:25;2.85;;;1.08;;
9675;SDS011;4876;42.656;23.292;2024-01-30T07:45:50;2.17;;;0.90;;
9675;SDS011;4876;42.656;23.292;2024-01-30T07:48:16;2.17;;;1.10;;
9675;SDS011;4876;42.656;23.292;2024-01-30T07:50:42;3.47;;;1.00;;
9675;SDS011;4876;42.656;23.292;2024-01-30T07:53:07;3.10;;;0.85;;
9675;SDS011;4876;42.656;23.292;2024-01-30T07:55:33;2.28;;;0.82;;
9675;SDS011;4876;42.656;23.292;2024-01-30T07:57:58;4.65;;;1.00;;
9675;SDS011;4876;42.656;23.292;2024-01-30T08:00:24;2.85;;;1.08;;
9675;SDS011;4876;42.656;23.292;2024-01-30T08:02:50;4.10;;;1.10;;
9675;SDS011;4876;42.656;23.292;2024-01-30T08:05:15;3.08;;;1.25;;
9675;SDS011;4876;42.656;23.292;2024-01-30T08:07:41;2.95;;;1.38;;
9675;SDS011;4876;42.656;23.292;2024-01-30T08:10:11;2.20;;;1.13;;
9675;SDS011;4876;42.656;23.292;2024-01-30T08:12:38;1.17;;;0.70;;
9675;SDS011;4876;42.656;23.292;2024-01-30T08:15:04;1.45;;;0.52;;
9675;SDS011;4876;42.656;23.292;2024-01-30T08:17:30;2.63;;;0.90;;
9675;SDS011;4876;42.656;23.292;2024-01-30T08:19:55;4.50;;;1.35;;
9675;SDS011;4876;42.656;23.292;2024-01-30T08:22:21;2.50;;;0.80;;
9675;SDS011;4876;42.656;23.292;2024-01-30T08:24:46;2.22;;;1.10;;
9675;SDS011;4876;42.656;23.292;2024-01-30T08:27:12;3.88;;;0.95;;
9675;SDS011;4876;42.656;23.292;2024-01-30T08:29:38;2.20;;;1.05;;
9675;SDS011;4876;42.656;23.292;2024-01-30T08:32:06;3.40;;;1.45;;
9675;SDS011;4876;42.656;23.292;2024-01-30T08:34:31;2.53;;;1.00;;
9675;SDS011;4876;42.656;23.292;2024-01-30T08:36:57;1.70;;;0.70;;
9675;SDS011;4876;42.656;23.292;2024-01-30T08:39:23;1.17;;;0.52;;
9675;SDS011;4876;42.656;23.292;2024-01-30T08:41:48;2.28;;;0.75;;
9675;SDS011;4876;42.656;23.292;2024-01-30T08:44:14;2.22;;;1.20;;
9675;SDS011;4876;42.656;23.292;2024-01-30T08:46:39;3.97;;;2.05;;
9675;SDS011;4876;42.656;23.292;2024-01-30T08:49:05;2.70;;;1.05;;
9675;SDS011;4876;42.656;23.292;2024-01-30T08:51:30;4.15;;;1.42;;
9675;SDS011;4876;42.656;23.292;2024-01-30T08:53:56;2.67;;;0.98;;
9675;SDS011;4876;42.656;23.292;2024-01-30T08:56:22;2.67;;;1.48;;
9675;SDS011;4876;42.656;23.292;2024-01-30T08:58:47;3.65;;;1.83;;
9675;SDS011;4876;42.656;23.292;2024-01-30T09:01:13;4.88;;;1.30;;
9675;SDS011;4876;42.656;23.292;2024-01-30T09:03:39;3.13;;;1.30;;
9675;SDS011;4876;42.656;23.292;2024-01-30T09:06:09;2.70;;;0.93;;
9675;SDS011;4876;42.656;23.292;2024-01-30T09:08:35;2.72;;;0.90;;
9675;SDS011;4876;42.656;23.292;2024-01-30T09:11:02;1.77;;;1.13;;
9675;SDS011;4876;42.656;23.292;2024-01-30T09:13:33;3.53;;;1.38;;
9675;SDS011;4876;42.656;23.292;2024-01-30T09:15:59;3.00;;;1.25;;
9675;SDS011;4876;42.656;23.292;2024-01-30T09:18:24;3.65;;;1.98;;
9675;SDS011;4876;42.656;23.292;2024-01-30T09:20:50;1.92;;;1.23;;
9675;SDS011;4876;42.656;23.292;2024-01-30T09:23:15;4.88;;;2.22;;
9675;SDS011;4876;42.656;23.292;2024-01-30T09:25:42;4.03;;;1.67;;
9675;SDS011;4876;42.656;23.292;2024-01-30T09:28:07;5.20;;;2.20;;
9675;SDS011;4876;42.656;23.292;2024-01-30T09:30:33;4.00;;;1.98;;
9675;SDS011;4876;42.656;23.292;2024-01-30T09:32:59;4.38;;;2.03;;
9675;SDS011;4876;42.656;23.292;2024-01-30T09:35:24;3.40;;;1.65;;
9675;SDS011;4876;42.656;23.292;2024-01-30T09:37:50;4.22;;;1.75;;
9675;SDS011;4876;42.656;23.292;2024-01-30T09:40:17;5.43;;;2.60;;
9675;SDS011;4876;42.656;23.292;2024-01-30T09:42:44;4.22;;;1.35;;
9675;SDS011;4876;42.656;23.292;2024-01-30T09:45:13;2.72;;;1.30;;
9675;SDS011;4876;42.656;23.292;2024-01-30T09:47:43;3.45;;;1.50;;
9675;SDS011;4876;42.656;23.292;2024-01-30T09:50:09;3.35;;;1.52;;
9675;SDS011;4876;42.656;23.292;2024-01-30T09:52:36;3.42;;;1.42;;
9675;SDS011;4876;42.656;23.292;2024-01-30T09:55:02;7.50;;;1.95;;
9675;SDS011;4876;42.656;23.292;2024-01-30T09:57:28;2.88;;;1.80;;
9675;SDS011;4876;42.656;23.292;2024-01-30T09:59:54;3.03;;;1.38;;
9675;SDS011;4876;42.656;23.292;2024-01-30T10:02:20;3.40;;;1.45;;
9675;SDS011;4876;42.656;23.292;2024-01-30T10:04:49;3.25;;;2.03;;
9675;SDS011;4876;42.656;23.292;2024-01-30T10:07:16;1.98;;;1.00;;
9675;SDS011;4876;42.656;23.292;2024-01-30T10:09:42;2.97;;;2.13;;
9675;SDS011;4876;42.656;23.292;2024-01-30T10:12:11;2.47;;;1.35;;
9675;SDS011;4876;42.656;23.292;2024-01-30T10:14:37;3.35;;;1.70;;
9675;SDS011;4876;42.656;23.292;2024-01-30T10:17:04;4.45;;;2.10;;
9675;SDS011;4876;42.656;23.292;2024-01-30T10:19:31;4.25;;;1.63;;
9675;SDS011;4876;42.656;23.292;2024-01-30T10:21:56;4.28;;;1.73;;
9675;SDS011;4876;42.656;23.292;2024-01-30T10:24:25;4.57;;;1.88;;
9675;SDS011;4876;42.656;23.292;2024-01-30T10:26:52;4.15;;;1.85;;
9675;SDS011;4876;42.656;23.292;2024-01-30T10:29:18;6.35;;;2.97;;
9675;SDS011;4876;42.656;23.292;2024-01-30T10:31:44;5.10;;;2.20;;
9675;SDS011;4876;42.656;23.292;2024-01-30T10:34:09;5.13;;;2.13;;
9675;SDS011;4876;42.656;23.292;2024-01-30T10:36:40;6.10;;;2.33;;
9675;SDS011;4876;42.656;23.292;2024-01-30T10:39:08;4.00;;;1.40;;
9675;SDS011;4876;42.656;23.292;2024-01-30T10:41:39;7.60;;;2.13;;
9675;SDS011;4876;42.656;23.292;2024-01-30T10:44:09;5.07;;;1.75;;
9675;SDS011;4876;42.656;23.292;2024-01-30T10:46:39;2.67;;;1.38;;
9675;SDS011;4876;42.656;23.292;2024-01-30T10:49:10;4.25;;;1.95;;
9675;SDS011;4876;42.656;23.292;2024-01-30T10:51:36;4.00;;;1.25;;
9675;SDS011;4876;42.656;23.292;2024-01-30T10:54:03;6.18;;;1.77;;
9675;SDS011;4876;42.656;23.292;2024-01-30T10:56:30;5.95;;;2.20;;
9675;SDS011;4876;42.656;23.292;2024-01-30T10:58:58;3.30;;;1.20;;
9675;SDS011;4876;42.656;23.292;2024-01-30T11:01:25;3.30;;;1.90;;
9675;SDS011;4876;42.656;23.292;2024-01-30T11:03:53;3.95;;;2.05;;
9675;SDS011;4876;42.656;23.292;2024-01-30T11:06:22;5.70;;;2.20;;
9675;SDS011;4876;42.656;23.292;2024-01-30T11:11:28;4.75;;;1.90;;
9675;SDS011;4876;42.656;23.292;2024-01-30T11:13:54;3.58;;;1.60;;
9675;SDS011;4876;42.656;23.292;2024-01-30T11:16:19;3.75;;;1.95;;
9675;SDS011;4876;42.656;23.292;2024-01-30T11:18:49;2.67;;;1.48;;
9675;SDS011;4876;42.656;23.292;2024-01-30T11:21:16;3.70;;;1.70;;
9675;SDS011;4876;42.656;23.292;2024-01-30T11:23:42;3.78;;;1.73;;
9675;SDS011;4876;42.656;23.292;2024-01-30T11:26:10;2.15;;;0.98;;
9675;SDS011;4876;42.656;23.292;2024-01-30T11:28:36;2.60;;;0.73;;
9675;SDS011;4876;42.656;23.292;2024-01-30T11:31:05;4.38;;;1.67;;
9675;SDS011;4876;42.656;23.292;2024-01-30T11:33:35;3.53;;;1.45;;
9675;SDS011;4876;42.656;23.292;2024-01-30T11:36:00;3.42;;;1.63;;
9675;SDS011;4876;42.656;23.292;2024-01-30T11:38:32;5.40;;;1.77;;
9675;SDS011;4876;42.656;23.292;2024-01-30T11:40:57;1.65;;;1.10;;
9675;SDS011;4876;42.656;23.292;2024-01-30T11:43:23;4.00;;;1.63;;
9675;SDS011;4876;42.656;23.292;2024-01-30T11:45:50;4.15;;;1.40;;
9675;SDS011;4876;42.656;23.292;2024-01-30T11:48:16;3.75;;;1.67;;
9675;SDS011;4876;42.656;23.292;2024-01-30T11:50:42;5.55;;;2.85;;
9675;SDS011;4876;42.656;23.292;2024-01-30T11:53:11;3.45;;;1.95;;
9675;SDS011;4876;42.656;23.292;2024-01-30T11:55:36;3.13;;;1.65;;
9675;SDS011;4876;42.656;23.292;2024-01-30T11:58:02;4.32;;;2.10;;
9675;SDS011;4876;42.656;23.292;2024-01-30T12:00:29;5.13;;;2.33;;
9675;SDS011;4876;42.656;23.292;2024-01-30T12:02:56;2.50;;;1.05;;
9675;SDS011;4876;42.656;23.292;2024-01-30T12:05:25;4.32;;;2.35;;
9675;SDS011;4876;42.656;23.292;2024-01-30T12:07:51;3.47;;;1.55;;
9675;SDS011;4876;42.656;23.292;2024-01-30T12:10:17;3.45;;;1.50;;
9675;SDS011;4876;42.656;23.292;2024-01-30T12:12:46;3.50;;;1.50;;
9675;SDS011;4876;42.656;23.292;2024-01-30T12:15:13;3.95;;;1.48;;
9675;SDS011;4876;42.656;23.292;2024-01-30T12:17:39;5.18;;;2.20;;
9675;SDS011;4876;42.656;23.292;2024-01-30T12:25:08;3.20;;;1.17;;
9675;SDS011;4876;42.656;23.292;2024-01-30T12:27:35;5.45;;;1.67;;
9675;SDS011;4876;42.656;23.292;2024-01-30T12:30:04;6.05;;;1.80;;
9675;SDS011;4876;42.656;23.292;2024-01-30T12:32:31;4.05;;;1.55;;
9675;SDS011;4876;42.656;23.292;2024-01-30T12:34:59;4.10;;;1.98;;
9675;SDS011;4876;42.656;23.292;2024-01-30T12:37:24;2.13;;;1.35;;
9675;SDS011;4876;42.656;23.292;2024-01-30T12:39:53;3.60;;;1.17;;
9675;SDS011;4876;42.656;23.292;2024-01-30T12:42:19;5.57;;;1.88;;
9675;SDS011;4876;42.656;23.292;2024-01-30T12:44:46;3.60;;;1.67;;
9675;SDS011;4876;42.656;23.292;2024-01-30T12:47:12;5.20;;;2.03;;
9675;SDS011;4876;42.656;23.292;2024-01-30T12:49:38;1.80;;;1.05;;
9675;SDS011;4876;42.656;23.292;2024-01-30T12:52:03;4.78;;;2.10;;
9675;SDS011;4876;42.656;23.292;2024-01-30T12:54:29;6.18;;;2.40;;
9675;SDS011;4876;42.656;23.292;2024-01-30T12:56:55;4.32;;;2.50;;
9675;SDS011;4876;42.656;23.292;2024-01-30T12:59:21;4.35;;;2.30;;
9675;SDS011;4876;42.656;23.292;2024-01-30T13:01:47;4.22;;;2.00;;
9675;SDS011;4876;42.656;23.292;2024-01-30T13:04:12;4.80;;;2.72;;
9675;SDS011;4876;42.656;23.292;2024-01-30T13:06:38;2.72;;;1.30;;
9675;SDS011;4876;42.656;23.292;2024-01-30T13:09:03;3.70;;;1.90;;
9675;SDS011;4876;42.656;23.292;2024-01-30T13:11:30;4.35;;;1.90;;
9675;SDS011;4876;42.656;23.292;2024-01-30T13:13:57;3.63;;;1.80;;
9675;SDS011;4876;42.656;23.292;2024-01-30T13:16:22;5.30;;;2.28;;
9675;SDS011;4876;42.656;23.292;2024-01-30T13:18:48;4.65;;;2.17;;
9675;SDS011;4876;42.656;23.292;2024-01-30T13:21:14;5.35;;;2.42;;
9675;SDS011;4876;42.656;23.292;2024-01-30T13:23:39;3.90;;;1.98;;
9675;SDS011;4876;42.656;23.292;2024-01-30T13:26:05;3.60;;;1.52;;
9675;SDS011;4876;42.656;23.292;2024-01-30T13:28:32;5.22;;;1.90;;
9675;SDS011;4876;42.656;23.292;2024-01-30T13:30:58;3.30;;;1.52;;
9675;SDS011;4876;42.656;23.292;2024-01-30T13:33:24;4.50;;;1.58;;
9675;SDS011;4876;42.656;23.292;2024-01-30T13:35:49;5.55;;;2.13;;
9675;SDS011;4876;42.656;23.292;2024-01-30T13:38:15;4.30;;;2.17;;
9675;SDS011;4876;42.656;23.292;2024-01-30T13:40:41;6.03;;;2.03;;
9675;SDS011;4876;42.656;23.292;2024-01-30T13:43:06;3.47;;;1.90;;
9675;SDS011;4876;42.656;23.292;2024-01-30T13:45:32;3.58;;;1.67;;
9675;SDS011;4876;42.656;23.292;2024-01-30T13:47:57;3.05;;;1.20;;
9675;SDS011;4876;42.656;23.292;2024-01-30T13:50:24;4.47;;;2.33;;
9675;SDS011;4876;42.656;23.292;2024-01-30T13:52:49;4.95;;;2.35;;
9675;SDS011;4876;42.656;23.292;2024-01-30T13:55:15;3.40;;;1.73;;
9675;SDS011;4876;42.656;23.292;2024-01-30T13:57:41;3.10;;;1.88;;
9675;SDS011;4876;42.656;23.292;2024-01-30T14:00:07;3.05;;;1.27;;
9675;SDS011;4876;42.656;23.292;2024-01-30T14:02:32;4.38;;;2.08;;
9675;SDS011;4876;42.656;23.292;2024-01-30T14:04:58;4.13;;;2.05;;
9675;SDS011;4876;42.656;23.292;2024-01-30T14:07:24;6.63;;;1.95;;
9675;SDS011;4876;42.656;23.292;2024-01-30T14:09:49;5.25;;;2.72;;
9675;SDS011;4876;42.656;23.292;2024-01-30T14:12:15;4.40;;;2.17;;
9675;SDS011;4876;42.656;23.292;2024-01-30T14:14:40;4.53;;;2.08;;
9675;SDS011;4876;42.656;23.292;2024-01-30T14:17:06;4.40;;;2.20;;
9675;SDS011;4876;42.656;23.292;2024-01-30T14:19:32;4.68;;;1.83;;
9675;SDS011;4876;42.656;23.292;2024-01-30T14:21:59;5.60;;;2.15;;
9675;SDS011;4876;42.656;23.292;2024-01-30T14:24:24;4.97;;;2.50;;
9675;SDS011;4876;42.656;23.292;2024-01-30T14:26:50;3.25;;;1.75;;
9675;SDS011;4876;42.656;23.292;2024-01-30T14:29:16;4.82;;;2.03;;
9675;SDS011;4876;42.656;23.292;2024-01-30T14:31:41;4.15;;;2.42;;
9675;SDS011;4876;42.656;23.292;2024-01-30T14:34:07;4.60;;;2.30;;
9675;SDS011;4876;42.656;23.292;2024-01-30T14:36:33;5.20;;;2.15;;
9675;SDS011;4876;42.656;23.292;2024-01-30T14:38:59;6.50;;;2.47;;
9675;SDS011;4876;42.656;23.292;2024-01-30T14:41:24;5.40;;;2.58;;
9675;SDS011;4876;42.656;23.292;2024-01-30T14:43:50;6.72;;;2.38;;
9675;SDS011;4876;42.656;23.292;2024-01-30T14:46:15;4.00;;;2.15;;
9675;SDS011;4876;42.656;23.292;2024-01-30T14:48:41;7.07;;;2.08;;
9675;SDS011;4876;42.656;23.292;2024-01-30T14:51:08;5.22;;;2.28;;
9675;SDS011;4876;42.656;23.292;2024-01-30T14:53:33;3.58;;;1.95;;
9675;SDS011;4876;42.656;23.292;2024-01-30T14:55:59;5.10;;;2.15;;
9675;SDS011;4876;42.656;23.292;2024-01-30T14:58:24;4.50;;;1.92;;
9675;SDS011;4876;42.656;23.292;2024-01-30T15:00:50;6.32;;;2.85;;
9675;SDS011;4876;42.656;23.292;2024-01-30T15:03:15;7.93;;;1.92;;